sensor_id;sensor_type;location;lat;lon;timestamp;pressure;altitude;pressure_sealevel;temperature;humidity
55540;BME280;41384;51.418;7.286;2022-11-23T00:02:14;97976.59;;;7.27;100.00
55540;BME280;41384;51.418;7.286;2022-11-23T00:04:39;97985.03;;;7.41;100.00
55540;BME280;41384;51.418;7.286;2022-11-23T00:07:04;97971.25;;;7.22;100.00
55540;BME280;41384;51.418;7.286;2022-11-23T00:09:30;97978.44;;;7.15;100.00
55540;BME280;41384;51.418;7.286;2022-11-23T00:11:55;97977.28;;;7.35;100.00
55540;BME280;41384;51.418;7.286;2022-11-23T00:14:20;97973.41;;;7.37;100.00
55540;BME280;41384;51.418;7.286;2022-11-23T00:16:45;97968.16;;;7.37;100.00
55540;BME280;41384;51.418;7.286;2022-11-23T00:19:11;97978.63;;;7.49;100.00
55540;BME280;41384;51.418;7.286;2022-11-23T00:21:36;97989.81;;;7.56;100.00
55540;BME280;41384;51.418;7.286;2022-11-23T00:24:02;97981.38;;;7.42;100.00
55540;BME280;41384;51.418;7.286;2022-11-23T00:26:27;97984.69;;;7.38;100.00
55540;BME280;41384;51.418;7.286;2022-11-23T00:28:52;97981.97;;;7.33;100.00
55540;BME280;41384;51.418;7.286;2022-11-23T00:31:19;97975.47;;;7.35;100.00
55540;BME280;41384;51.418;7.286;2022-11-23T00:33:49;97981.38;;;7.42;100.00
55540;BME280;41384;51.418;7.286;2022-11-23T00:36:15;97987.09;;;7.51;100.00
55540;BME280;41384;51.418;7.286;2022-11-23T00:38:41;97983.31;;;7.47;100.00
55540;BME280;41384;51.418;7.286;2022-11-23T00:41:09;97984.22;;;7.53;100.00
55540;BME280;41384;51.418;7.286;2022-11-23T00:43:35;97990.50;;;7.52;100.00
55540;BME280;41384;51.418;7.286;2022-11-23T00:48:35;97995.09;;;7.33;100.00
55540;BME280;41384;51.418;7.286;2022-11-23T00:51:02;97993.59;;;7.37;100.00
55540;BME280;41384;51.418;7.286;2022-11-23T00:53:28;97999.97;;;7.41;100.00
55540;BME280;41384;51.418;7.286;2022-11-23T00:55:56;97997.25;;;7.36;100.00
55540;BME280;41384;51.418;7.286;2022-11-23T00:58:22;98006.38;;;7.45;100.00
55540;BME280;41384;51.418;7.286;2022-11-23T01:00:48;98004.78;;;7.44;100.00
55540;BME280;41384;51.418;7.286;2022-11-23T01:03:14;97993.13;;;7.40;100.00
55540;BME280;41384;51.418;7.286;2022-11-23T01:05:39;98002.03;;;7.39;100.00
55540;BME280;41384;51.418;7.286;2022-11-23T01:08:05;97996.66;;;7.57;100.00
55540;BME280;41384;51.418;7.286;2022-11-23T01:10:31;98009.69;;;7.52;100.00
55540;BME280;41384;51.418;7.286;2022-11-23T01:12:57;97996.78;;;7.63;100.00
55540;BME280;41384;51.418;7.286;2022-11-23T01:15:23;98007.94;;;7.70;100.00
55540;BME280;41384;51.418;7.286;2022-11-23T01:17:48;98006.72;;;7.49;100.00
55540;BME280;41384;51.418;7.286;2022-11-23T01:20:13;98010.22;;;7.66;100.00
55540;BME280;41384;51.418;7.286;2022-11-23T01:22:39;98012.38;;;7.69;100.00
55540;BME280;41384;51.418;7.286;2022-11-23T01:25:05;98007.47;;;7.73;100.00
55540;BME280;41384;51.418;7.286;2022-11-23T01:27:30;98004.59;;;7.74;100.00
55540;BME280;41384;51.418;7.286;2022-11-23T01:29:55;98006.00;;;7.65;100.00
55540;BME280;41384;51.418;7.286;2022-11-23T01:32:20;98004.31;;;7.59;100.00
55540;BME280;41384;51.418;7.286;2022-11-23T01:34:46;98013.91;;;7.53;100.00
55540;BME280;41384;51.418;7.286;2022-11-23T01:37:11;98009.75;;;7.69;100.00
55540;BME280;41384;51.418;7.286;2022-11-23T01:39:36;98014.44;;;7.79;100.00
55540;BME280;41384;51.418;7.286;2022-11-23T01:42:02;98019.53;;;7.86;100.00
55540;BME280;41384;51.418;7.286;2022-11-23T01:44:33;98023.44;;;7.83;100.00
55540;BME280;41384;51.418;7.286;2022-11-23T01:47:00;98025.03;;;7.96;100.00
55540;BME280;41384;51.418;7.286;2022-11-23T01:49:30;98029.69;;;7.94;100.00
55540;BME280;41384;51.418;7.286;2022-11-23T01:52:03;98024.41;;;7.94;100.00
55540;BME280;41384;51.418;7.286;2022-11-23T01:54:39;98029.81;;;7.87;100.00
55540;BME280;41384;51.418;7.286;2022-11-23T01:57:23;98034.34;;;8.04;100.00
55540;BME280;41384;51.418;7.286;2022-11-23T01:59:50;98026.84;;;7.96;100.00
55540;BME280;41384;51.418;7.286;2022-11-23T02:02:17;98033.69;;;7.97;100.00
55540;BME280;41384;51.418;7.286;2022-11-23T02:04:45;98042.13;;;7.99;100.00
55540;BME280;41384;51.418;7.286;2022-11-23T02:07:12;98041.91;;;8.00;100.00
55540;BME280;41384;51.418;7.286;2022-11-23T02:09:39;98038.47;;;8.00;100.00
55540;BME280;41384;51.418;7.286;2022-11-23T02:12:10;98038.59;;;7.93;100.00
55540;BME280;41384;51.418;7.286;2022-11-23T02:14:35;98042.94;;;7.99;100.00
55540;BME280;41384;51.418;7.286;2022-11-23T02:17:01;98041.56;;;7.97;100.00
55540;BME280;41384;51.418;7.286;2022-11-23T02:19:34;98038.00;;;8.03;100.00
55540;BME280;41384;51.418;7.286;2022-11-23T02:22:05;98040.31;;;7.99;100.00
55540;BME280;41384;51.418;7.286;2022-11-23T02:24:41;98042.97;;;8.16;100.00
55540;BME280;41384;51.418;7.286;2022-11-23T02:27:10;98041.28;;;8.10;100.00
55540;BME280;41384;51.418;7.286;2022-11-23T02:29:36;98048.16;;;8.11;100.00
55540;BME280;41384;51.418;7.286;2022-11-23T02:32:02;98047.22;;;8.17;100.00
55540;BME280;41384;51.418;7.286;2022-11-23T02:34:27;98044.38;;;8.19;100.00
55540;BME280;41384;51.418;7.286;2022-11-23T02:36:55;98042.31;;;8.09;100.00
55540;BME280;41384;51.418;7.286;2022-11-23T02:39:36;98050.25;;;7.97;100.00
55540;BME280;41384;51.418;7.286;2022-11-23T02:42:03;98048.41;;;8.10;100.00
55540;BME280;41384;51.418;7.286;2022-11-23T02:44:36;98038.28;;;7.89;100.00
55540;BME280;41384;51.418;7.286;2022-11-23T02:47:04;98044.47;;;8.12;100.00
55540;BME280;41384;51.418;7.286;2022-11-23T02:49:30;98051.59;;;8.12;100.00
55540;BME280;41384;51.418;7.286;2022-11-23T02:51:55;98053.31;;;8.06;100.00
55540;BME280;41384;51.418;7.286;2022-11-23T02:54:20;98058.28;;;8.20;100.00
55540;BME280;41384;51.418;7.286;2022-11-23T02:56:46;98055.16;;;8.06;100.00
55540;BME280;41384;51.418;7.286;2022-11-23T02:59:11;98067.00;;;8.08;100.00
55540;BME280;41384;51.418;7.286;2022-11-23T03:01:37;98064.81;;;8.17;100.00
55540;BME280;41384;51.418;7.286;2022-11-23T03:04:04;98069.25;;;8.28;100.00
55540;BME280;41384;51.418;7.286;2022-11-23T03:06:29;98062.75;;;8.19;100.00
55540;BME280;41384;51.418;7.286;2022-11-23T03:08:55;98062.03;;;8.24;100.00
55540;BME280;41384;51.418;7.286;2022-11-23T03:11:20;98058.66;;;8.11;100.00
55540;BME280;41384;51.418;7.286;2022-11-23T03:13:45;98064.44;;;7.96;100.00
55540;BME280;41384;51.418;7.286;2022-11-23T03:16:10;98058.25;;;8.02;100.00
55540;BME280;41384;51.418;7.286;2022-11-23T03:18:35;98066.22;;;8.08;100.00
55540;BME280;41384;51.418;7.286;2022-11-23T03:21:05;98066.91;;;8.03;100.00
55540;BME280;41384;51.418;7.286;2022-11-23T03:23:33;98069.91;;;7.95;100.00
55540;BME280;41384;51.418;7.286;2022-11-23T03:25:59;98072.72;;;8.05;100.00
55540;BME280;41384;51.418;7.286;2022-11-23T03:28:24;98082.00;;;7.96;100.00
55540;BME280;41384;51.418;7.286;2022-11-23T03:30:50;98073.91;;;7.97;100.00
55540;BME280;41384;51.418;7.286;2022-11-23T03:33:16;98079.59;;;7.94;100.00
55540;BME280;41384;51.418;7.286;2022-11-23T03:35:42;98077.69;;;7.78;100.00
55540;BME280;41384;51.418;7.286;2022-11-23T03:38:07;98073.69;;;7.75;100.00
55540;BME280;41384;51.418;7.286;2022-11-23T03:40:32;98078.59;;;7.71;100.00
55540;BME280;41384;51.418;7.286;2022-11-23T03:42:58;98076.91;;;7.65;100.00
55540;BME280;41384;51.418;7.286;2022-11-23T03:45:23;98066.97;;;7.67;100.00
55540;BME280;41384;51.418;7.286;2022-11-23T03:47:48;98080.69;;;7.57;100.00
55540;BME280;41384;51.418;7.286;2022-11-23T03:50:13;98075.31;;;7.64;100.00
55540;BME280;41384;51.418;7.286;2022-11-23T03:52:39;98066.50;;;7.70;100.00
55540;BME280;41384;51.418;7.286;2022-11-23T03:55:04;98069.59;;;7.67;100.00
55540;BME280;41384;51.418;7.286;2022-11-23T03:57:30;98074.88;;;7.55;100.00
55540;BME280;41384;51.418;7.286;2022-11-23T03:59:55;98078.84;;;7.70;100.00
55540;BME280;41384;51.418;7.286;2022-11-23T04:02:20;98079.31;;;7.67;100.00
55540;BME280;41384;51.418;7.286;2022-11-23T04:04:45;98075.53;;;7.63;100.00
55540;BME280;41384;51.418;7.286;2022-11-23T04:07:11;98085.81;;;7.64;100.00
55540;BME280;41384;51.418;7.286;2022-11-23T04:09:36;98081.47;;;7.46;100.00
55540;BME280;41384;51.418;7.286;2022-11-23T04:12:01;98081.34;;;7.53;100.00
55540;BME280;41384;51.418;7.286;2022-11-23T04:14:26;98092.31;;;7.50;100.00
55540;BME280;41384;51.418;7.286;2022-11-23T04:16:52;98090.38;;;7.69;100.00
55540;BME280;41384;51.418;7.286;2022-11-23T04:19:17;98082.59;;;7.50;100.00
55540;BME280;41384;51.418;7.286;2022-11-23T04:21:42;98081.47;;;7.46;100.00
55540;BME280;41384;51.418;7.286;2022-11-23T04:24:08;98084.00;;;7.29;100.00
55540;BME280;41384;51.418;7.286;2022-11-23T04:26:33;98085.00;;;7.40;100.00
55540;BME280;41384;51.418;7.286;2022-11-23T04:28:58;98082.38;;;7.52;100.00
55540;BME280;41384;51.418;7.286;2022-11-23T04:31:23;98087.63;;;7.28;100.00
55540;BME280;41384;51.418;7.286;2022-11-23T04:33:49;98076.56;;;7.38;100.00
55540;BME280;41384;51.418;7.286;2022-11-23T04:36:14;98079.88;;;7.45;100.00
55540;BME280;41384;51.418;7.286;2022-11-23T04:38:39;98081.94;;;7.55;100.00
55540;BME280;41384;51.418;7.286;2022-11-23T04:41:05;98081.34;;;7.53;100.00
55540;BME280;41384;51.418;7.286;2022-11-23T04:43:30;98083.88;;;7.48;100.00
55540;BME280;41384;51.418;7.286;2022-11-23T04:45:56;98092.34;;;7.62;100.00
55540;BME280;41384;51.418;7.286;2022-11-23T04:48:21;98088.88;;;7.61;100.00
55540;BME280;41384;51.418;7.286;2022-11-23T04:50:47;98089.47;;;7.63;100.00
55540;BME280;41384;51.418;7.286;2022-11-23T04:53:12;98088.31;;;7.71;100.00
55540;BME280;41384;51.418;7.286;2022-11-23T04:55:37;98092.31;;;7.50;100.00
55540;BME280;41384;51.418;7.286;2022-11-23T04:58:03;98095.06;;;7.55;100.00
55540;BME280;41384;51.418;7.286;2022-11-23T05:00:28;98083.53;;;7.56;100.00
55540;BME280;41384;51.418;7.286;2022-11-23T05:02:53;98094.59;;;7.46;100.00
55540;BME280;41384;51.418;7.286;2022-11-23T05:05:19;98083.88;;;7.59;100.00
55540;BME280;41384;51.418;7.286;2022-11-23T05:07:44;98080.78;;;7.51;100.00
55540;BME280;41384;51.418;7.286;2022-11-23T05:10:09;98091.41;;;7.44;100.00
55540;BME280;41384;51.418;7.286;2022-11-23T05:12:35;98083.06;;;7.47;100.00
55540;BME280;41384;51.418;7.286;2022-11-23T05:15:01;98084.44;;;7.62;100.00
55540;BME280;41384;51.418;7.286;2022-11-23T05:17:26;98082.72;;;7.67;100.00
55540;BME280;41384;51.418;7.286;2022-11-23T05:19:52;98081.25;;;7.48;100.00
55540;BME280;41384;51.418;7.286;2022-11-23T05:22:17;98089.59;;;7.44;100.00
55540;BME280;41384;51.418;7.286;2022-11-23T05:24:42;98092.91;;;7.64;100.00
55540;BME280;41384;51.418;7.286;2022-11-23T05:27:08;98091.88;;;7.65;100.00
55540;BME280;41384;51.418;7.286;2022-11-23T05:29:33;98081.69;;;7.68;100.00
55540;BME280;41384;51.418;7.286;2022-11-23T05:31:58;98080.09;;;7.67;100.00
55540;BME280;41384;51.418;7.286;2022-11-23T05:34:23;98085.47;;;7.49;100.00
55540;BME280;41384;51.418;7.286;2022-11-23T05:36:49;98081.34;;;7.41;100.00
55540;BME280;41384;51.418;7.286;2022-11-23T05:39:14;98091.41;;;7.56;100.00
55540;BME280;41384;51.418;7.286;2022-11-23T05:41:39;98093.09;;;7.50;100.00
55540;BME280;41384;51.418;7.286;2022-11-23T05:44:05;98089.69;;;7.50;100.00
55540;BME280;41384;51.418;7.286;2022-11-23T05:46:30;98101.91;;;7.56;100.00
55540;BME280;41384;51.418;7.286;2022-11-23T05:48:56;98102.25;;;7.48;100.00
55540;BME280;41384;51.418;7.286;2022-11-23T05:51:21;98102.22;;;7.36;100.00
55540;BME280;41384;51.418;7.286;2022-11-23T05:53:47;98088.66;;;7.39;100.00
55540;BME280;41384;51.418;7.286;2022-11-23T05:56:12;98087.63;;;7.40;100.00
55540;BME280;41384;51.418;7.286;2022-11-23T05:58:38;98095.38;;;7.35;100.00
55540;BME280;41384;51.418;7.286;2022-11-23T06:01:04;98098.38;;;7.38;100.00
55540;BME280;41384;51.418;7.286;2022-11-23T06:03:29;98092.09;;;7.39;100.00
55540;BME280;41384;51.418;7.286;2022-11-23T06:05:54;98087.16;;;7.19;100.00
55540;BME280;41384;51.418;7.286;2022-11-23T06:08:19;98093.56;;;7.23;100.00
55540;BME280;41384;51.418;7.286;2022-11-23T06:10:45;98095.38;;;7.35;100.00
55540;BME280;41384;51.418;7.286;2022-11-23T06:13:10;98093.34;;;7.37;100.00
55540;BME280;41384;51.418;7.286;2022-11-23T06:15:35;98100.28;;;7.43;100.00
55540;BME280;41384;51.418;7.286;2022-11-23T06:18:01;98099.53;;;7.54;100.00
55540;BME280;41384;51.418;7.286;2022-11-23T06:20:27;98102.91;;;7.43;100.00
55540;BME280;41384;51.418;7.286;2022-11-23T06:22:53;98107.38;;;7.30;100.00
55540;BME280;41384;51.418;7.286;2022-11-23T06:25:19;98103.84;;;7.49;100.00
55540;BME280;41384;51.418;7.286;2022-11-23T06:27:55;98112.72;;;7.36;100.00
55540;BME280;41384;51.418;7.286;2022-11-23T06:30:21;98105.22;;;7.51;100.00
55540;BME280;41384;51.418;7.286;2022-11-23T06:32:46;98106.84;;;7.52;100.00
55540;BME280;41384;51.418;7.286;2022-11-23T06:35:12;98104.06;;;7.47;100.00
55540;BME280;41384;51.418;7.286;2022-11-23T06:37:37;98105.34;;;7.56;100.00
55540;BME280;41384;51.418;7.286;2022-11-23T06:40:03;98097.56;;;7.38;100.00
55540;BME280;41384;51.418;7.286;2022-11-23T06:42:28;98109.31;;;7.47;100.00
55540;BME280;41384;51.418;7.286;2022-11-23T06:44:53;98106.25;;;7.38;100.00
55540;BME280;41384;51.418;7.286;2022-11-23T06:47:18;98109.75;;;7.44;100.00
55540;BME280;41384;51.418;7.286;2022-11-23T06:49:44;98116.72;;;7.50;100.00
55540;BME280;41384;51.418;7.286;2022-11-23T06:52:09;98114.47;;;7.54;100.00
55540;BME280;41384;51.418;7.286;2022-11-23T06:54:34;98119.38;;;7.62;100.00
55540;BME280;41384;51.418;7.286;2022-11-23T06:56:59;98118.81;;;7.72;100.00
55540;BME280;41384;51.418;7.286;2022-11-23T06:59:25;98121.97;;;7.86;100.00
55540;BME280;41384;51.418;7.286;2022-11-23T07:01:50;98125.66;;;7.73;100.00
55540;BME280;41384;51.418;7.286;2022-11-23T07:04:16;98116.84;;;7.43;100.00
55540;BME280;41384;51.418;7.286;2022-11-23T07:06:41;98118.00;;;7.48;100.00
55540;BME280;41384;51.418;7.286;2022-11-23T07:09:07;98128.25;;;7.49;100.00
55540;BME280;41384;51.418;7.286;2022-11-23T07:11:33;98132.47;;;7.50;100.00
55540;BME280;41384;51.418;7.286;2022-11-23T07:13:58;98135.94;;;7.63;100.00
55540;BME280;41384;51.418;7.286;2022-11-23T07:16:24;98135.03;;;7.69;100.00
55540;BME280;41384;51.418;7.286;2022-11-23T07:18:49;98137.19;;;7.72;100.00
55540;BME280;41384;51.418;7.286;2022-11-23T07:21:14;98132.97;;;7.59;100.00
55540;BME280;41384;51.418;7.286;2022-11-23T07:23:40;98137.09;;;7.67;100.00
55540;BME280;41384;51.418;7.286;2022-11-23T07:26:07;98134.78;;;7.47;100.00
55540;BME280;41384;51.418;7.286;2022-11-23T07:28:32;98144.91;;;7.43;100.00
55540;BME280;41384;51.418;7.286;2022-11-23T07:30:57;98150.16;;;7.43;100.00
55540;BME280;41384;51.418;7.286;2022-11-23T07:33:23;98133.72;;;7.36;100.00
55540;BME280;41384;51.418;7.286;2022-11-23T07:35:48;98141.38;;;7.37;100.00
55540;BME280;41384;51.418;7.286;2022-11-23T07:38:13;98146.41;;;7.27;100.00
55540;BME280;41384;51.418;7.286;2022-11-23T07:40:39;98146.06;;;7.35;100.00
55540;BME280;41384;51.418;7.286;2022-11-23T07:43:05;98149.94;;;7.33;100.00
55540;BME280;41384;51.418;7.286;2022-11-23T07:45:31;98150.72;;;7.21;100.00
55540;BME280;41384;51.418;7.286;2022-11-23T07:48:02;98144.81;;;7.38;100.00
55540;BME280;41384;51.418;7.286;2022-11-23T07:50:28;98150.97;;;7.32;100.00
55540;BME280;41384;51.418;7.286;2022-11-23T07:52:53;98154.94;;;7.22;100.00
55540;BME280;41384;51.418;7.286;2022-11-23T07:55:19;98155.31;;;7.26;100.00
55540;BME280;41384;51.418;7.286;2022-11-23T07:57:44;98157.94;;;7.38;100.00
55540;BME280;41384;51.418;7.286;2022-11-23T08:00:10;98158.28;;;7.41;100.00
55540;BME280;41384;51.418;7.286;2022-11-23T08:02:36;98162.94;;;7.27;100.00
55540;BME280;41384;51.418;7.286;2022-11-23T08:05:01;98162.84;;;7.46;100.00
55540;BME280;41384;51.418;7.286;2022-11-23T08:07:26;98163.09;;;7.44;100.00
55540;BME280;41384;51.418;7.286;2022-11-23T08:09:52;98159.00;;;7.61;100.00
55540;BME280;41384;51.418;7.286;2022-11-23T08:12:17;98166.88;;;7.61;100.00
55540;BME280;41384;51.418;7.286;2022-11-23T08:14:42;98167.34;;;7.57;100.00
55540;BME280;41384;51.418;7.286;2022-11-23T08:17:07;98171.00;;;7.56;100.00
55540;BME280;41384;51.418;7.286;2022-11-23T08:19:33;98171.19;;;7.55;100.00
55540;BME280;41384;51.418;7.286;2022-11-23T08:21:58;98169.72;;;7.59;100.00
55540;BME280;41384;51.418;7.286;2022-11-23T08:24:23;98171.88;;;7.62;100.00
55540;BME280;41384;51.418;7.286;2022-11-23T08:26:48;98170.53;;;7.59;100.00
55540;BME280;41384;51.418;7.286;2022-11-23T08:29:14;98171.69;;;7.64;100.00
55540;BME280;41384;51.418;7.286;2022-11-23T08:31:39;98169.38;;;7.67;100.00
55540;BME280;41384;51.418;7.286;2022-11-23T08:34:04;98171.09;;;7.85;100.00
55540;BME280;41384;51.418;7.286;2022-11-23T08:36:30;98175.34;;;7.98;100.00
55540;BME280;41384;51.418;7.286;2022-11-23T08:38:55;98180.09;;;8.13;100.00
55540;BME280;41384;51.418;7.286;2022-11-23T08:41:20;98184.53;;;8.25;100.00
55540;BME280;41384;51.418;7.286;2022-11-23T08:43:46;98186.59;;;8.23;100.00
55540;BME280;41384;51.418;7.286;2022-11-23T08:46:11;98183.41;;;8.21;100.00
55540;BME280;41384;51.418;7.286;2022-11-23T08:48:37;98190.38;;;8.27;100.00
55540;BME280;41384;51.418;7.286;2022-11-23T08:51:02;98183.06;;;8.29;100.00
55540;BME280;41384;51.418;7.286;2022-11-23T08:53:28;98184.19;;;8.33;100.00
55540;BME280;41384;51.418;7.286;2022-11-23T08:55:53;98188.31;;;8.41;100.00
55540;BME280;41384;51.418;7.286;2022-11-23T08:58:18;98176.75;;;8.30;99.78
55540;BME280;41384;51.418;7.286;2022-11-23T09:00:44;98186.47;;;8.41;99.03
55540;BME280;41384;51.418;7.286;2022-11-23T09:03:09;98194.25;;;8.36;99.04
55540;BME280;41384;51.418;7.286;2022-11-23T09:05:36;98194.47;;;8.46;98.78
55540;BME280;41384;51.418;7.286;2022-11-23T09:08:01;98191.16;;;8.51;99.30
55540;BME280;41384;51.418;7.286;2022-11-23T09:10:27;98196.75;;;8.43;98.48
55540;BME280;41384;51.418;7.286;2022-11-23T09:12:52;98190.00;;;8.47;98.31
55540;BME280;41384;51.418;7.286;2022-11-23T09:15:18;98188.53;;;8.51;98.31
55540;BME280;41384;51.418;7.286;2022-11-23T09:17:44;98179.97;;;8.56;97.63
55540;BME280;41384;51.418;7.286;2022-11-23T09:20:10;98177.19;;;8.63;98.25
55540;BME280;41384;51.418;7.286;2022-11-23T09:22:35;98190.56;;;8.61;96.60
55540;BME280;41384;51.418;7.286;2022-11-23T09:25:01;98194.09;;;8.67;97.26
55540;BME280;41384;51.418;7.286;2022-11-23T09:27:26;98192.75;;;8.64;96.04
55540;BME280;41384;51.418;7.286;2022-11-23T09:29:52;98189.28;;;8.75;95.73
55540;BME280;41384;51.418;7.286;2022-11-23T09:32:17;98185.69;;;8.82;95.48
55540;BME280;41384;51.418;7.286;2022-11-23T09:34:42;98193.25;;;8.78;94.46
55540;BME280;41384;51.418;7.286;2022-11-23T09:37:09;98191.31;;;8.85;94.12
55540;BME280;41384;51.418;7.286;2022-11-23T09:39:34;98182.03;;;8.83;93.94
55540;BME280;41384;51.418;7.286;2022-11-23T09:48:13;98192.53;;;8.95;90.65
55540;BME280;41384;51.418;7.286;2022-11-23T09:50:46;98190.94;;;8.94;90.53
55540;BME280;41384;51.418;7.286;2022-11-23T09:53:21;98199.47;;;9.01;91.94
55540;BME280;41384;51.418;7.286;2022-11-23T09:55:50;98199.00;;;9.04;89.21
55540;BME280;41384;51.418;7.286;2022-11-23T09:58:20;98186.81;;;9.15;88.35
55540;BME280;41384;51.418;7.286;2022-11-23T10:00:53;98196.69;;;9.08;87.22
55540;BME280;41384;51.418;7.286;2022-11-23T10:03:20;98197.75;;;9.24;87.43
55540;BME280;41384;51.418;7.286;2022-11-23T10:06:39;98201.56;;;9.16;87.36
55540;BME280;41384;51.418;7.286;2022-11-23T10:12:01;98188.69;;;9.31;87.01
55540;BME280;41384;51.418;7.286;2022-11-23T10:14:48;98194.72;;;9.15;86.09
55540;BME280;41384;51.418;7.286;2022-11-23T10:22:49;98184.81;;;9.22;83.16
55540;BME280;41384;51.418;7.286;2022-11-23T10:25:18;98185.69;;;9.11;83.64
55540;BME280;41384;51.418;7.286;2022-11-23T10:27:46;98193.59;;;9.11;83.56
55540;BME280;41384;51.418;7.286;2022-11-23T10:30:13;98189.50;;;9.03;81.47
55540;BME280;41384;51.418;7.286;2022-11-23T10:32:59;98187.78;;;9.26;80.89
55540;BME280;41384;51.418;7.286;2022-11-23T10:35:34;98196.69;;;9.08;80.92
55540;BME280;41384;51.418;7.286;2022-11-23T10:38:08;98204.09;;;9.11;81.09
55540;BME280;41384;51.418;7.286;2022-11-23T10:40:34;98192.97;;;9.20;80.02
55540;BME280;41384;51.418;7.286;2022-11-23T10:43:11;98186.59;;;9.16;78.96
55540;BME280;41384;51.418;7.286;2022-11-23T10:45:38;98194.88;;;9.08;78.20
55540;BME280;41384;51.418;7.286;2022-11-23T10:48:04;98180.03;;;9.19;77.34
55540;BME280;41384;51.418;7.286;2022-11-23T10:50:32;98172.56;;;9.45;77.36
55540;BME280;41384;51.418;7.286;2022-11-23T10:55:31;98181.84;;;9.01;78.92
55540;BME280;41384;51.418;7.286;2022-11-23T10:57:57;98171.59;;;9.34;79.02
55540;BME280;41384;51.418;7.286;2022-11-23T11:00:25;98169.53;;;9.36;78.89
55540;BME280;41384;51.418;7.286;2022-11-23T11:02:53;98161.47;;;9.60;79.02
55540;BME280;41384;51.418;7.286;2022-11-23T11:05:37;98159.66;;;9.60;78.67
55540;BME280;41384;51.418;7.286;2022-11-23T11:08:12;98157.25;;;9.42;78.74
55540;BME280;41384;51.418;7.286;2022-11-23T11:10:40;98155.47;;;9.47;77.73
55540;BME280;41384;51.418;7.286;2022-11-23T11:15:53;98144.72;;;9.49;76.65
55540;BME280;41384;51.418;7.286;2022-11-23T11:18:18;98143.44;;;9.34;76.75
55540;BME280;41384;51.418;7.286;2022-11-23T11:20:45;98137.31;;;9.46;76.39
55540;BME280;41384;51.418;7.286;2022-11-23T11:23:19;98139.94;;;9.46;75.45
55540;BME280;41384;51.418;7.286;2022-11-23T11:25:46;98139.31;;;9.39;75.49
55540;BME280;41384;51.418;7.286;2022-11-23T11:28:54;98142.00;;;9.44;74.75
55540;BME280;41384;51.418;7.286;2022-11-23T11:31:43;98133.63;;;9.47;75.94
55540;BME280;41384;51.418;7.286;2022-11-23T11:34:23;98132.75;;;9.41;76.56
55540;BME280;41384;51.418;7.286;2022-11-23T11:37:08;98129.31;;;9.41;77.21
55540;BME280;41384;51.418;7.286;2022-11-23T11:39:44;98128.75;;;9.22;77.31
55540;BME280;41384;51.418;7.286;2022-11-23T11:42:20;98126.44;;;9.42;78.22
55540;BME280;41384;51.418;7.286;2022-11-23T11:44:51;98118.31;;;9.27;77.46
55540;BME280;41384;51.418;7.286;2022-11-23T11:47:30;98112.56;;;9.30;78.20
55540;BME280;41384;51.418;7.286;2022-11-23T11:50:00;98121.97;;;9.26;77.89
55540;BME280;41384;51.418;7.286;2022-11-23T11:52:36;98108.97;;;9.19;77.57
55540;BME280;41384;51.418;7.286;2022-11-23T11:55:21;98119.91;;;9.28;77.84
55540;BME280;41384;51.418;7.286;2022-11-23T11:58:09;98107.06;;;9.31;77.72
55540;BME280;41384;51.418;7.286;2022-11-23T12:00:36;98104.31;;;9.26;77.06
55540;BME280;41384;51.418;7.286;2022-11-23T12:06:19;98090.78;;;9.34;76.75
55540;BME280;41384;51.418;7.286;2022-11-23T12:08:56;98096.53;;;9.31;75.69
55540;BME280;41384;51.418;7.286;2022-11-23T12:11:23;98101.63;;;9.38;75.67
55540;BME280;41384;51.418;7.286;2022-11-23T12:13:48;98097.31;;;9.32;75.96
55540;BME280;41384;51.418;7.286;2022-11-23T12:24:46;98113.38;;;9.30;76.21
55540;BME280;41384;51.418;7.286;2022-11-23T12:46:15;98111.03;;;9.51;74.07
55540;BME280;41384;51.418;7.286;2022-11-23T12:51:58;98115.13;;;9.42;73.77
55540;BME280;41384;51.418;7.286;2022-11-23T12:57:26;98102.38;;;9.33;73.88
55540;BME280;41384;51.418;7.286;2022-11-23T12:59:58;98106.97;;;9.26;74.23
55540;BME280;41384;51.418;7.286;2022-11-23T13:10:54;98089.13;;;9.28;73.34
55540;BME280;41384;51.418;7.286;2022-11-23T13:19:26;98086.78;;;9.15;73.01
55540;BME280;41384;51.418;7.286;2022-11-23T13:21:54;98072.28;;;9.29;72.32
55540;BME280;41384;51.418;7.286;2022-11-23T13:24:33;98077.94;;;9.21;72.71
55540;BME280;41384;51.418;7.286;2022-11-23T13:29:46;98069.41;;;9.14;72.22
55540;BME280;41384;51.418;7.286;2022-11-23T13:32:45;98069.41;;;9.31;72.46
55540;BME280;41384;51.418;7.286;2022-11-23T13:40:28;98047.63;;;9.18;72.96
55540;BME280;41384;51.418;7.286;2022-11-23T13:43:16;98041.47;;;9.13;71.39
55540;BME280;41384;51.418;7.286;2022-11-23T13:45:42;98049.38;;;9.13;71.71
55540;BME280;41384;51.418;7.286;2022-11-23T13:50:38;98046.09;;;9.05;72.25
55540;BME280;41384;51.418;7.286;2022-11-23T13:53:19;98053.84;;;8.95;71.93
55540;BME280;41384;51.418;7.286;2022-11-23T13:55:46;98054.16;;;9.16;71.34
55540;BME280;41384;51.418;7.286;2022-11-23T14:08:52;98048.50;;;9.07;72.69
55540;BME280;41384;51.418;7.286;2022-11-23T14:11:21;98041.50;;;8.96;72.82
55540;BME280;41384;51.418;7.286;2022-11-23T14:13:56;98050.19;;;8.96;73.25
55540;BME280;41384;51.418;7.286;2022-11-23T14:16:42;98047.94;;;8.88;73.52
55540;BME280;41384;51.418;7.286;2022-11-23T14:19:23;98055.63;;;8.89;73.15
55540;BME280;41384;51.418;7.286;2022-11-23T14:25:11;98052.50;;;8.93;73.56
55540;BME280;41384;51.418;7.286;2022-11-23T14:28:03;98050.63;;;8.76;73.52
55540;BME280;41384;51.418;7.286;2022-11-23T14:30:39;98052.44;;;8.87;73.33
55540;BME280;41384;51.418;7.286;2022-11-23T14:36:02;98043.72;;;8.87;73.50
55540;BME280;41384;51.418;7.286;2022-11-23T14:38:50;98046.91;;;8.89;73.89
55540;BME280;41384;51.418;7.286;2022-11-23T14:41:21;98041.31;;;8.68;73.57
55540;BME280;41384;51.418;7.286;2022-11-23T14:43:48;98039.97;;;8.83;74.10
55540;BME280;41384;51.418;7.286;2022-11-23T14:46:19;98043.59;;;8.65;74.64
55540;BME280;41384;51.418;7.286;2022-11-23T14:48:46;98049.69;;;8.82;74.48